createdAt,value
2019-01-24T00:01:10.059Z,55.47
2019-01-24T00:06:15.397Z,60.30
2019-01-24T00:11:20.727Z,60.73
2019-01-24T00:16:26.063Z,52.37
2019-01-24T00:21:31.468Z,56.67
2019-01-24T00:26:36.755Z,51.90
2019-01-24T00:31:42.138Z,54.63
2019-01-24T00:36:47.470Z,53.60
2019-01-24T00:41:52.813Z,52.93
2019-01-24T00:46:58.223Z,52.60
2019-01-24T00:52:03.562Z,57.57
2019-01-24T00:57:08.847Z,51.50
2019-01-24T01:02:14.194Z,50.90
2019-01-24T01:07:19.537Z,53.20
2019-01-24T01:12:24.944Z,53.43
2019-01-24T01:17:30.353Z,53.23
2019-01-24T01:22:35.695Z,51.37
2019-01-24T01:27:41.008Z,53.00
2019-01-24T01:32:46.321Z,51.47
2019-01-24T01:37:51.640Z,52.80
2019-01-24T01:42:56.958Z,55.97
2019-01-24T01:48:02.301Z,51.27
2019-01-24T01:53:07.654Z,51.20
2019-01-24T01:58:12.943Z,54.00
2019-01-24T02:03:18.272Z,62.53
2019-01-24T02:08:23.594Z,57.97
2019-01-24T02:13:28.939Z,62.07
2019-01-24T02:18:34.248Z,57.73
2019-01-24T02:23:39.567Z,60.17
2019-01-24T02:28:44.927Z,54.13
2019-01-24T02:33:50.236Z,57.80
2019-01-24T02:38:55.551Z,58.93
2019-01-24T02:44:00.886Z,57.10
2019-01-24T02:49:06.225Z,62.47
2019-01-24T02:54:11.521Z,60.13
2019-01-24T02:59:16.850Z,58.17
2019-01-24T03:04:22.178Z,57.87
2019-01-24T03:09:27.510Z,58.13
2019-01-24T03:14:32.908Z,61.27
2019-01-24T03:19:38.243Z,65.03
2019-01-24T03:24:43.554Z,63.83
2019-01-24T03:29:48.900Z,62.37
2019-01-24T03:34:54.255Z,57.10
2019-01-24T03:39:59.586Z,62.77
2019-01-24T03:45:05.847Z,61.20
2019-01-24T03:50:14.739Z,57.57
2019-01-24T03:55:21.658Z,60.77
2019-01-24T04:00:27.196Z,61.77
2019-01-24T04:05:32.562Z,65.53
2019-01-24T04:10:37.884Z,66.93
2019-01-24T04:15:43.217Z,64.30
2019-01-24T04:20:48.533Z,65.20
2019-01-24T04:25:53.897Z,64.37
2019-01-24T04:30:59.231Z,60.20
2019-01-24T04:36:04.582Z,64.80
2019-01-24T04:41:09.899Z,63.83
2019-01-24T04:46:15.235Z,63.73
2019-01-24T04:51:20.575Z,62.97
2019-01-24T04:56:25.932Z,65.17
2019-01-24T05:01:31.354Z,60.33
2019-01-24T05:06:36.732Z,65.57
2019-01-24T05:11:42.082Z,59.03
2019-01-24T05:16:47.428Z,64.20
2019-01-24T05:21:52.761Z,61.03
2019-01-24T05:26:58.090Z,59.23
2019-01-24T05:32:03.418Z,61.30
2019-01-24T05:37:08.814Z,62.80
2019-01-24T05:42:14.297Z,60.03
2019-01-24T05:47:19.619Z,62.20
2019-01-24T05:52:24.974Z,60.97
2019-01-24T05:57:30.367Z,59.17
2019-01-24T06:02:35.736Z,59.07
2019-01-24T06:07:41.066Z,60.07
2019-01-24T06:12:46.417Z,60.57
2019-01-24T06:17:51.781Z,58.73
2019-01-24T06:22:57.109Z,66.30
2019-01-24T06:28:02.454Z,61.30
2019-01-24T06:33:07.898Z,57.43
2019-01-24T06:38:13.193Z,60.77
2019-01-24T06:43:18.549Z,57.50
2019-01-24T06:48:23.998Z,61.57
2019-01-24T06:53:29.406Z,62.77
2019-01-24T06:58:34.737Z,64.83
2019-01-24T07:03:40.110Z,55.57
2019-01-24T07:08:45.461Z,63.73
2019-01-24T07:13:50.788Z,57.87
2019-01-24T07:18:56.102Z,57.77
2019-01-24T07:24:01.411Z,62.70
2019-01-24T07:29:06.722Z,61.20
2019-01-24T07:34:12.118Z,67.07
2019-01-24T07:39:18.649Z,62.30
2019-01-24T07:44:24.012Z,67.57
2019-01-24T07:49:29.331Z,61.50
2019-01-24T07:54:34.641Z,64.00
2019-01-24T07:59:39.974Z,64.37
2019-01-24T08:04:45.364Z,56.67
2019-01-24T08:09:50.763Z,55.03
2019-01-24T08:14:56.099Z,62.53
2019-01-24T08:20:01.414Z,77.03
2019-01-24T08:25:07.809Z,60.13
2019-01-24T08:30:17.495Z,66.40
2019-01-24T08:35:22.819Z,70.77
2019-01-24T08:40:28.139Z,63.90
2019-01-24T08:45:33.641Z,62.20
2019-01-24T08:50:38.995Z,68.27
2019-01-24T08:55:45.299Z,61.07
2019-01-24T09:00:50.690Z,69.27
2019-01-24T09:05:56.054Z,67.43
2019-01-24T09:11:01.442Z,58.43
2019-01-24T09:16:06.771Z,69.43
2019-01-24T09:21:12.104Z,63.40
2019-01-24T09:26:17.419Z,65.07
2019-01-24T09:31:22.723Z,68.33
2019-01-24T09:36:29.383Z,70.23
2019-01-24T09:41:34.860Z,63.20
2019-01-24T09:46:40.276Z,69.07
2019-01-24T09:51:45.600Z,70.03
2019-01-24T09:56:50.929Z,69.77
2019-01-24T10:01:56.249Z,65.40
2019-01-24T10:07:01.622Z,67.13
2019-01-24T10:12:07.012Z,72.17
2019-01-24T10:17:14.077Z,65.90
2019-01-24T10:22:19.523Z,66.97
2019-01-24T10:27:24.825Z,63.07
2019-01-24T10:32:30.197Z,65.57
2019-01-24T10:37:35.729Z,61.73
2019-01-24T10:42:41.187Z,67.47
2019-01-24T10:47:46.524Z,73.07
2019-01-24T10:52:51.985Z,71.33
2019-01-24T10:58:02.763Z,69.77
2019-01-24T11:03:11.242Z,66.53
2019-01-24T11:08:16.904Z,73.60
2019-01-24T11:13:22.224Z,69.13
2019-01-24T11:18:27.801Z,73.17
2019-01-24T11:23:33.144Z,72.97
2019-01-24T11:28:38.517Z,78.50
2019-01-24T11:33:43.821Z,73.30
2019-01-24T11:38:49.173Z,78.57
2019-01-24T11:43:54.464Z,81.23
2019-01-24T11:48:59.791Z,75.90
2019-01-24T11:54:05.114Z,81.20
2019-01-24T11:59:10.432Z,79.30
2019-01-24T12:04:15.837Z,85.90
2019-01-24T12:09:21.184Z,77.77
2019-01-24T12:14:26.681Z,76.70
2019-01-24T12:19:32.024Z,76.47
2019-01-24T12:24:37.383Z,77.93
2019-01-24T12:29:42.853Z,77.83
2019-01-24T12:34:48.209Z,83.50
2019-01-24T12:39:53.531Z,80.50
2019-01-24T12:44:58.933Z,74.10
2019-01-24T12:50:04.291Z,80.43
2019-01-24T12:55:10.130Z,74.97
2019-01-24T13:00:21.875Z,72.77
2019-01-24T13:05:27.224Z,74.97
2019-01-24T13:10:32.754Z,74.50
2019-01-24T13:15:38.094Z,80.03
2019-01-24T13:20:43.437Z,79.10
2019-01-24T13:25:48.799Z,74.67
2019-01-24T13:30:54.136Z,74.50
2019-01-24T13:35:59.513Z,72.33
2019-01-24T13:41:04.887Z,77.80
2019-01-24T13:46:10.241Z,81.77
2019-01-24T13:51:15.570Z,77.37
2019-01-24T13:56:21.071Z,69.93
2019-01-24T14:01:26.384Z,80.43
2019-01-24T14:06:31.799Z,75.67
2019-01-24T14:11:37.134Z,70.83
2019-01-24T14:16:42.583Z,72.47
2019-01-24T14:21:47.995Z,74.90
2019-01-24T14:26:53.416Z,75.43
2019-01-24T14:31:58.808Z,75.50
2019-01-24T14:37:04.389Z,78.80
2019-01-24T14:42:10.064Z,72.77
2019-01-24T14:47:15.426Z,72.47
2019-01-24T14:52:20.767Z,73.40
2019-01-24T14:57:26.106Z,72.30
2019-01-24T15:02:31.538Z,78.03
2019-01-24T15:07:36.897Z,74.30
2019-01-24T15:12:42.341Z,75.50
2019-01-24T15:17:47.762Z,72.03
2019-01-24T15:22:53.107Z,72.57
2019-01-24T15:27:58.414Z,70.50
2019-01-24T15:33:03.738Z,74.77
2019-01-24T15:38:09.145Z,70.83
2019-01-24T15:43:14.476Z,68.93
2019-01-24T15:48:19.790Z,73.70
2019-01-24T15:53:25.300Z,70.90
2019-01-24T15:58:30.724Z,75.20
2019-01-24T16:03:36.098Z,75.87
2019-01-24T16:08:41.450Z,65.67
2019-01-24T16:13:46.913Z,68.40
2019-01-24T16:18:52.456Z,68.87
2019-01-24T16:23:57.881Z,68.80
2019-01-24T16:29:03.302Z,73.20
2019-01-24T16:34:08.666Z,71.37
2019-01-24T16:39:14.083Z,75.40
2019-01-24T16:44:19.515Z,64.13
2019-01-24T16:49:24.891Z,70.27
2019-01-24T16:54:30.251Z,64.73
2019-01-24T16:59:35.736Z,67.47
2019-01-24T17:04:41.164Z,71.47
2019-01-24T17:09:46.477Z,70.03
2019-01-24T17:14:51.836Z,69.93
2019-01-24T17:19:57.187Z,70.93
2019-01-24T17:25:02.563Z,67.67
2019-01-24T17:30:10.411Z,68.83
2019-01-24T17:35:15.732Z,74.33
2019-01-24T17:40:27.578Z,74.77
2019-01-24T17:45:33.053Z,70.20
2019-01-24T17:50:38.480Z,68.87
2019-01-24T17:55:46.198Z,77.23
2019-01-24T18:00:53.529Z,68.57
2019-01-24T18:05:58.942Z,72.40
2019-01-24T18:11:04.272Z,69.53
2019-01-24T18:16:09.645Z,72.67
2019-01-24T18:21:14.994Z,76.17
2019-01-24T18:26:20.318Z,71.67
2019-01-24T18:31:25.633Z,70.53
2019-01-24T18:36:30.991Z,70.57
2019-01-24T18:41:36.308Z,73.57
2019-01-24T18:46:41.835Z,73.33
2019-01-24T18:51:47.258Z,69.07
2019-01-24T18:56:52.622Z,72.30
2019-01-24T19:01:58.016Z,69.97
2019-01-24T19:07:03.369Z,74.60
2019-01-24T19:12:08.739Z,74.10
2019-01-24T19:17:14.063Z,68.63
2019-01-24T19:22:19.401Z,71.93
2019-01-24T19:27:24.783Z,68.20
2019-01-24T19:32:30.186Z,67.53
2019-01-24T19:37:35.556Z,67.53
2019-01-24T19:42:40.884Z,68.23
2019-01-24T19:47:46.263Z,63.37
2019-01-24T19:52:51.617Z,75.00
2019-01-24T19:57:57.065Z,68.70
2019-01-24T20:03:02.624Z,71.57
2019-01-24T20:08:08.095Z,69.90
2019-01-24T20:13:13.453Z,76.57
2019-01-24T20:18:18.770Z,67.63
2019-01-24T20:23:24.130Z,72.67
2019-01-24T20:28:29.523Z,68.97
2019-01-24T20:33:34.851Z,67.50
2019-01-24T20:38:40.209Z,72.27
2019-01-24T20:43:45.648Z,71.50
2019-01-24T20:48:50.962Z,72.17
2019-01-24T20:53:56.287Z,73.23
2019-01-24T20:59:01.632Z,73.93
2019-01-24T21:04:06.987Z,82.30
2019-01-24T21:09:14.904Z,70.40
2019-01-24T21:14:19.431Z,71.13
2019-01-24T21:19:24.814Z,79.57
2019-01-24T21:24:30.174Z,71.17
2019-01-24T21:29:35.509Z,81.43
2019-01-24T21:34:40.859Z,79.63
2019-01-24T21:39:46.232Z,77.90
2019-01-24T21:44:51.659Z,81.50
2019-01-24T21:49:57.035Z,89.80
2019-01-24T21:55:02.331Z,87.33
2019-01-24T22:00:09.517Z,100.67
2019-01-24T22:05:14.908Z,97.40
2019-01-24T22:10:27.852Z,86.27
2019-01-24T22:15:33.232Z,83.33
2019-01-24T22:20:38.646Z,79.63
2019-01-24T22:25:43.946Z,80.53
2019-01-24T22:30:52.010Z,86.33
2019-01-24T22:35:57.354Z,85.43
2019-01-24T22:41:02.684Z,80.70
2019-01-24T22:46:08.055Z,80.43
2019-01-24T22:51:13.363Z,79.50
2019-01-24T22:56:18.687Z,74.97
2019-01-24T23:02:09.921Z,78.47
2019-01-24T23:07:15.296Z,80.13
2019-01-24T23:12:20.663Z,76.83
2019-01-24T23:17:25.984Z,82.73
2019-01-24T23:22:31.331Z,74.13
2019-01-24T23:27:36.652Z,83.57
2019-01-24T23:32:43.856Z,85.20
2019-01-24T23:37:52.503Z,81.73
2019-01-24T23:42:56.355Z,82.13
2019-01-24T23:48:01.690Z,88.77
2019-01-24T23:53:08.093Z,88.93
2019-01-24T23:58:13.432Z,88.83
